sensor_id;sensor_type;location;lat;lon;timestamp;temperature;humidity
16666;DHT22;8446;50.998;6.250;2023-04-24T00:01:02;9.50;99.90
16666;DHT22;8446;50.998;6.250;2023-04-24T00:03:29;9.60;99.90
16666;DHT22;8446;50.998;6.250;2023-04-24T00:05:56;9.60;99.90
16666;DHT22;8446;50.998;6.250;2023-04-24T00:08:24;9.70;99.90
16666;DHT22;8446;50.998;6.250;2023-04-24T00:10:51;9.70;99.90
16666;DHT22;8446;50.998;6.250;2023-04-24T00:13:18;9.80;99.90
16666;DHT22;8446;50.998;6.250;2023-04-24T00:15:45;9.80;99.90
16666;DHT22;8446;50.998;6.250;2023-04-24T00:18:14;9.80;99.90
16666;DHT22;8446;50.998;6.250;2023-04-24T00:20:40;9.80;99.90
16666;DHT22;8446;50.998;6.250;2023-04-24T00:23:09;9.80;99.90
16666;DHT22;8446;50.998;6.250;2023-04-24T00:25:36;9.70;99.90
16666;DHT22;8446;50.998;6.250;2023-04-24T00:28:02;9.70;99.90
16666;DHT22;8446;50.998;6.250;2023-04-24T00:30:29;9.70;99.90
16666;DHT22;8446;50.998;6.250;2023-04-24T00:32:57;9.70;99.90
16666;DHT22;8446;50.998;6.250;2023-04-24T00:35:25;9.60;99.90
16666;DHT22;8446;50.998;6.250;2023-04-24T00:37:52;9.60;99.90
16666;DHT22;8446;50.998;6.250;2023-04-24T00:40:18;9.60;99.90
16666;DHT22;8446;50.998;6.250;2023-04-24T00:42:45;9.60;99.90
16666;DHT22;8446;50.998;6.250;2023-04-24T00:45:12;9.60;99.90
16666;DHT22;8446;50.998;6.250;2023-04-24T00:47:39;9.50;99.90
16666;DHT22;8446;50.998;6.250;2023-04-24T00:50:08;9.40;99.90
16666;DHT22;8446;50.998;6.250;2023-04-24T00:52:36;9.40;99.90
16666;DHT22;8446;50.998;6.250;2023-04-24T00:55:06;9.50;99.90
16666;DHT22;8446;50.998;6.250;2023-04-24T00:57:33;9.40;99.90
16666;DHT22;8446;50.998;6.250;2023-04-24T01:00:01;9.50;99.90
16666;DHT22;8446;50.998;6.250;2023-04-24T01:02:28;9.50;99.90
16666;DHT22;8446;50.998;6.250;2023-04-24T01:04:55;9.50;99.90
16666;DHT22;8446;50.998;6.250;2023-04-24T01:07:22;9.50;99.90
16666;DHT22;8446;50.998;6.250;2023-04-24T01:09:50;9.40;99.90
16666;DHT22;8446;50.998;6.250;2023-04-24T01:12:17;9.50;99.90
16666;DHT22;8446;50.998;6.250;2023-04-24T01:14:44;9.40;99.90
16666;DHT22;8446;50.998;6.250;2023-04-24T01:17:11;9.40;99.90
16666;DHT22;8446;50.998;6.250;2023-04-24T01:19:38;9.40;99.90
16666;DHT22;8446;50.998;6.250;2023-04-24T01:22:10;9.40;99.90
16666;DHT22;8446;50.998;6.250;2023-04-24T01:24:38;9.40;99.90
16666;DHT22;8446;50.998;6.250;2023-04-24T01:27:05;9.50;99.90
16666;DHT22;8446;50.998;6.250;2023-04-24T01:29:32;9.40;99.90
16666;DHT22;8446;50.998;6.250;2023-04-24T01:31:59;9.50;99.90
16666;DHT22;8446;50.998;6.250;2023-04-24T01:34:26;9.40;99.90
16666;DHT22;8446;50.998;6.250;2023-04-24T01:36:53;9.40;99.90
16666;DHT22;8446;50.998;6.250;2023-04-24T01:39:21;9.50;99.90
16666;DHT22;8446;50.998;6.250;2023-04-24T01:41:51;9.50;99.90
16666;DHT22;8446;50.998;6.250;2023-04-24T01:44:18;9.40;99.90
16666;DHT22;8446;50.998;6.250;2023-04-24T01:46:44;9.40;99.90
16666;DHT22;8446;50.998;6.250;2023-04-24T01:49:11;9.40;99.90
16666;DHT22;8446;50.998;6.250;2023-04-24T01:51:38;9.40;99.90
16666;DHT22;8446;50.998;6.250;2023-04-24T01:54:05;9.30;99.90
16666;DHT22;8446;50.998;6.250;2023-04-24T01:56:34;9.40;99.90
16666;DHT22;8446;50.998;6.250;2023-04-24T01:59:03;9.40;99.90
16666;DHT22;8446;50.998;6.250;2023-04-24T02:01:34;9.50;99.90
16666;DHT22;8446;50.998;6.250;2023-04-24T02:04:02;9.50;99.90
16666;DHT22;8446;50.998;6.250;2023-04-24T02:06:29;9.50;99.90
16666;DHT22;8446;50.998;6.250;2023-04-24T02:08:57;9.60;99.90
16666;DHT22;8446;50.998;6.250;2023-04-24T02:11:23;9.50;99.90
16666;DHT22;8446;50.998;6.250;2023-04-24T02:13:51;9.60;99.90
16666;DHT22;8446;50.998;6.250;2023-04-24T02:16:18;9.50;99.90
16666;DHT22;8446;50.998;6.250;2023-04-24T02:18:45;9.60;99.90
16666;DHT22;8446;50.998;6.250;2023-04-24T02:21:12;9.60;99.90
16666;DHT22;8446;50.998;6.250;2023-04-24T02:23:39;9.60;99.90
16666;DHT22;8446;50.998;6.250;2023-04-24T02:26:06;9.60;99.90
16666;DHT22;8446;50.998;6.250;2023-04-24T02:28:33;9.60;99.90
16666;DHT22;8446;50.998;6.250;2023-04-24T02:31:01;9.60;99.90
16666;DHT22;8446;50.998;6.250;2023-04-24T02:33:28;9.60;99.90
16666;DHT22;8446;50.998;6.250;2023-04-24T02:35:54;9.60;99.90
16666;DHT22;8446;50.998;6.250;2023-04-24T02:38:21;9.60;99.90
16666;DHT22;8446;50.998;6.250;2023-04-24T02:40:48;9.60;99.90
16666;DHT22;8446;50.998;6.250;2023-04-24T02:43:15;9.50;99.90
16666;DHT22;8446;50.998;6.250;2023-04-24T02:45:41;9.60;99.90
16666;DHT22;8446;50.998;6.250;2023-04-24T02:48:09;9.50;99.90
16666;DHT22;8446;50.998;6.250;2023-04-24T02:50:36;9.60;99.90
16666;DHT22;8446;50.998;6.250;2023-04-24T02:53:03;9.50;99.90
16666;DHT22;8446;50.998;6.250;2023-04-24T02:55:30;9.50;99.90
16666;DHT22;8446;50.998;6.250;2023-04-24T02:57:56;9.50;99.90
16666;DHT22;8446;50.998;6.250;2023-04-24T03:00:23;9.50;99.90
16666;DHT22;8446;50.998;6.250;2023-04-24T03:02:50;9.50;99.90
16666;DHT22;8446;50.998;6.250;2023-04-24T03:05:18;9.50;99.90
16666;DHT22;8446;50.998;6.250;2023-04-24T03:07:45;9.50;99.90
16666;DHT22;8446;50.998;6.250;2023-04-24T03:10:12;9.60;99.90
16666;DHT22;8446;50.998;6.250;2023-04-24T03:12:39;9.50;99.90
16666;DHT22;8446;50.998;6.250;2023-04-24T03:15:07;9.50;99.90
16666;DHT22;8446;50.998;6.250;2023-04-24T03:17:34;9.60;99.90
16666;DHT22;8446;50.998;6.250;2023-04-24T03:20:01;9.60;99.90
16666;DHT22;8446;50.998;6.250;2023-04-24T03:22:29;9.50;99.90
16666;DHT22;8446;50.998;6.250;2023-04-24T03:24:57;9.50;99.90
16666;DHT22;8446;50.998;6.250;2023-04-24T03:27:24;9.40;99.90
16666;DHT22;8446;50.998;6.250;2023-04-24T03:29:51;9.40;99.90
16666;DHT22;8446;50.998;6.250;2023-04-24T03:32:20;9.30;99.90
16666;DHT22;8446;50.998;6.250;2023-04-24T03:34:47;9.30;99.90
16666;DHT22;8446;50.998;6.250;2023-04-24T03:37:14;9.20;99.90
16666;DHT22;8446;50.998;6.250;2023-04-24T03:39:42;9.20;99.90
16666;DHT22;8446;50.998;6.250;2023-04-24T03:42:09;9.20;99.90
16666;DHT22;8446;50.998;6.250;2023-04-24T03:44:36;9.20;99.90
16666;DHT22;8446;50.998;6.250;2023-04-24T03:47:03;9.30;99.90
16666;DHT22;8446;50.998;6.250;2023-04-24T03:49:30;9.30;99.90
16666;DHT22;8446;50.998;6.250;2023-04-24T03:51:56;9.30;99.90
16666;DHT22;8446;50.998;6.250;2023-04-24T03:54:23;9.30;99.90
16666;DHT22;8446;50.998;6.250;2023-04-24T03:56:51;9.20;99.90
16666;DHT22;8446;50.998;6.250;2023-04-24T03:59:18;9.20;99.90
16666;DHT22;8446;50.998;6.250;2023-04-24T04:01:45;9.20;99.90
16666;DHT22;8446;50.998;6.250;2023-04-24T04:04:12;9.20;99.90
16666;DHT22;8446;50.998;6.250;2023-04-24T04:06:38;9.10;99.90
16666;DHT22;8446;50.998;6.250;2023-04-24T04:09:05;9.10;99.90
16666;DHT22;8446;50.998;6.250;2023-04-24T04:11:32;9.20;99.90
16666;DHT22;8446;50.998;6.250;2023-04-24T04:14:00;9.10;99.90
16666;DHT22;8446;50.998;6.250;2023-04-24T04:16:27;9.10;99.90
16666;DHT22;8446;50.998;6.250;2023-04-24T04:18:54;9.10;99.90
16666;DHT22;8446;50.998;6.250;2023-04-24T04:21:21;9.00;99.90
16666;DHT22;8446;50.998;6.250;2023-04-24T04:23:48;9.10;99.90
16666;DHT22;8446;50.998;6.250;2023-04-24T04:26:14;9.10;99.90
16666;DHT22;8446;50.998;6.250;2023-04-24T04:28:41;9.10;99.90
16666;DHT22;8446;50.998;6.250;2023-04-24T04:31:11;9.10;99.90
16666;DHT22;8446;50.998;6.250;2023-04-24T04:33:38;9.10;99.90
16666;DHT22;8446;50.998;6.250;2023-04-24T04:36:05;9.10;99.90
16666;DHT22;8446;50.998;6.250;2023-04-24T04:38:32;9.10;99.90
16666;DHT22;8446;50.998;6.250;2023-04-24T04:41:00;9.10;99.90
16666;DHT22;8446;50.998;6.250;2023-04-24T04:43:27;9.10;99.90
16666;DHT22;8446;50.998;6.250;2023-04-24T04:45:54;9.10;99.90
16666;DHT22;8446;50.998;6.250;2023-04-24T04:48:22;9.00;99.90
16666;DHT22;8446;50.998;6.250;2023-04-24T04:50:49;9.00;99.90
16666;DHT22;8446;50.998;6.250;2023-04-24T04:53:16;8.90;99.90
16666;DHT22;8446;50.998;6.250;2023-04-24T04:55:43;8.90;99.90
16666;DHT22;8446;50.998;6.250;2023-04-24T04:58:10;8.90;99.90
16666;DHT22;8446;50.998;6.250;2023-04-24T05:00:36;8.90;99.90
16666;DHT22;8446;50.998;6.250;2023-04-24T05:03:03;8.90;99.90
16666;DHT22;8446;50.998;6.250;2023-04-24T05:05:31;8.90;99.90
16666;DHT22;8446;50.998;6.250;2023-04-24T05:07:58;8.90;99.90
16666;DHT22;8446;50.998;6.250;2023-04-24T05:10:25;8.90;99.90
16666;DHT22;8446;50.998;6.250;2023-04-24T05:12:52;8.90;99.90
16666;DHT22;8446;50.998;6.250;2023-04-24T05:15:19;8.90;99.90
16666;DHT22;8446;50.998;6.250;2023-04-24T05:17:45;8.90;99.90
16666;DHT22;8446;50.998;6.250;2023-04-24T05:20:12;8.90;99.90
16666;DHT22;8446;50.998;6.250;2023-04-24T05:22:41;9.00;99.90
16666;DHT22;8446;50.998;6.250;2023-04-24T05:25:08;8.90;99.90
16666;DHT22;8446;50.998;6.250;2023-04-24T05:27:35;9.00;99.90
16666;DHT22;8446;50.998;6.250;2023-04-24T05:30:02;9.00;99.90
16666;DHT22;8446;50.998;6.250;2023-04-24T05:32:30;9.00;99.90
16666;DHT22;8446;50.998;6.250;2023-04-24T05:34:56;9.00;99.90
16666;DHT22;8446;50.998;6.250;2023-04-24T05:37:23;9.00;99.90
16666;DHT22;8446;50.998;6.250;2023-04-24T05:39:51;8.80;99.90
16666;DHT22;8446;50.998;6.250;2023-04-24T05:42:18;8.60;99.90
16666;DHT22;8446;50.998;6.250;2023-04-24T05:44:45;8.40;99.90
16666;DHT22;8446;50.998;6.250;2023-04-24T05:47:12;8.20;99.90
16666;DHT22;8446;50.998;6.250;2023-04-24T05:49:38;8.10;99.90
16666;DHT22;8446;50.998;6.250;2023-04-24T05:52:05;8.00;99.90
16666;DHT22;8446;50.998;6.250;2023-04-24T05:54:34;7.90;99.90
16666;DHT22;8446;50.998;6.250;2023-04-24T05:57:02;7.90;99.90
16666;DHT22;8446;50.998;6.250;2023-04-24T05:59:33;7.90;99.90
16666;DHT22;8446;50.998;6.250;2023-04-24T06:02:00;7.90;99.90
16666;DHT22;8446;50.998;6.250;2023-04-24T06:04:26;7.90;99.90
16666;DHT22;8446;50.998;6.250;2023-04-24T06:06:53;7.90;99.90
16666;DHT22;8446;50.998;6.250;2023-04-24T06:09:21;7.90;99.90
16666;DHT22;8446;50.998;6.250;2023-04-24T06:11:48;7.90;99.90
16666;DHT22;8446;50.998;6.250;2023-04-24T06:14:17;8.00;99.90
16666;DHT22;8446;50.998;6.250;2023-04-24T06:16:44;7.90;99.90
16666;DHT22;8446;50.998;6.250;2023-04-24T06:19:10;8.00;99.90
16666;DHT22;8446;50.998;6.250;2023-04-24T06:21:37;8.00;99.90
16666;DHT22;8446;50.998;6.250;2023-04-24T06:24:04;8.00;99.90
16666;DHT22;8446;50.998;6.250;2023-04-24T06:26:31;8.00;99.90
16666;DHT22;8446;50.998;6.250;2023-04-24T06:28:58;8.00;99.90
16666;DHT22;8446;50.998;6.250;2023-04-24T06:31:27;8.00;99.90
16666;DHT22;8446;50.998;6.250;2023-04-24T06:33:54;7.90;99.90
16666;DHT22;8446;50.998;6.250;2023-04-24T06:36:20;7.90;99.90
16666;DHT22;8446;50.998;6.250;2023-04-24T06:38:47;7.90;99.90
16666;DHT22;8446;50.998;6.250;2023-04-24T06:41:14;7.90;99.90
16666;DHT22;8446;50.998;6.250;2023-04-24T06:43:41;7.80;99.90
16666;DHT22;8446;50.998;6.250;2023-04-24T06:46:07;7.80;99.90
16666;DHT22;8446;50.998;6.250;2023-04-24T06:48:36;7.80;99.90
16666;DHT22;8446;50.998;6.250;2023-04-24T06:51:02;7.70;99.90
16666;DHT22;8446;50.998;6.250;2023-04-24T06:53:29;7.60;99.90
16666;DHT22;8446;50.998;6.250;2023-04-24T06:55:56;7.60;99.90
16666;DHT22;8446;50.998;6.250;2023-04-24T06:58:24;7.60;99.90
16666;DHT22;8446;50.998;6.250;2023-04-24T07:00:51;7.60;99.90
16666;DHT22;8446;50.998;6.250;2023-04-24T07:03:18;7.70;99.90
16666;DHT22;8446;50.998;6.250;2023-04-24T07:05:46;7.70;99.90
16666;DHT22;8446;50.998;6.250;2023-04-24T07:08:13;7.70;99.90
16666;DHT22;8446;50.998;6.250;2023-04-24T07:10:42;7.60;99.90
16666;DHT22;8446;50.998;6.250;2023-04-24T07:13:10;7.60;99.90
16666;DHT22;8446;50.998;6.250;2023-04-24T07:15:37;7.60;99.90
16666;DHT22;8446;50.998;6.250;2023-04-24T07:18:05;7.50;99.90
16666;DHT22;8446;50.998;6.250;2023-04-24T07:20:32;7.50;99.90
16666;DHT22;8446;50.998;6.250;2023-04-24T07:23:01;7.40;99.90
16666;DHT22;8446;50.998;6.250;2023-04-24T07:25:28;7.40;99.90
16666;DHT22;8446;50.998;6.250;2023-04-24T07:27:55;7.30;99.90
16666;DHT22;8446;50.998;6.250;2023-04-24T07:30:22;7.30;99.90
16666;DHT22;8446;50.998;6.250;2023-04-24T07:32:48;7.20;99.90
16666;DHT22;8446;50.998;6.250;2023-04-24T07:35:15;7.20;99.90
16666;DHT22;8446;50.998;6.250;2023-04-24T07:37:42;7.20;99.90
16666;DHT22;8446;50.998;6.250;2023-04-24T07:40:13;7.20;99.90
16666;DHT22;8446;50.998;6.250;2023-04-24T07:42:39;7.20;99.90
16666;DHT22;8446;50.998;6.250;2023-04-24T07:45:07;7.10;99.90
16666;DHT22;8446;50.998;6.250;2023-04-24T07:47:34;7.10;99.90
16666;DHT22;8446;50.998;6.250;2023-04-24T07:50:02;7.00;99.90
16666;DHT22;8446;50.998;6.250;2023-04-24T07:52:30;7.00;99.90
16666;DHT22;8446;50.998;6.250;2023-04-24T07:54:56;7.00;99.90
16666;DHT22;8446;50.998;6.250;2023-04-24T07:57:27;6.90;99.90
16666;DHT22;8446;50.998;6.250;2023-04-24T07:59:54;6.90;99.90
16666;DHT22;8446;50.998;6.250;2023-04-24T08:02:20;6.90;99.90
16666;DHT22;8446;50.998;6.250;2023-04-24T08:04:51;6.90;99.90
16666;DHT22;8446;50.998;6.250;2023-04-24T08:07:18;6.90;99.90
16666;DHT22;8446;50.998;6.250;2023-04-24T08:09:45;6.90;99.90
16666;DHT22;8446;50.998;6.250;2023-04-24T08:12:12;6.90;99.90
16666;DHT22;8446;50.998;6.250;2023-04-24T08:14:41;6.90;99.90
16666;DHT22;8446;50.998;6.250;2023-04-24T08:17:07;6.90;99.90
16666;DHT22;8446;50.998;6.250;2023-04-24T08:19:34;6.90;99.90
16666;DHT22;8446;50.998;6.250;2023-04-24T08:22:01;6.90;99.90
16666;DHT22;8446;50.998;6.250;2023-04-24T08:24:29;6.90;99.90
16666;DHT22;8446;50.998;6.250;2023-04-24T08:26:56;7.00;99.90
16666;DHT22;8446;50.998;6.250;2023-04-24T08:29:23;7.00;99.90
16666;DHT22;8446;50.998;6.250;2023-04-24T08:31:53;7.10;99.90
16666;DHT22;8446;50.998;6.250;2023-04-24T08:34:21;7.10;99.90
16666;DHT22;8446;50.998;6.250;2023-04-24T08:36:47;7.20;99.90
16666;DHT22;8446;50.998;6.250;2023-04-24T08:39:14;7.20;99.90
16666;DHT22;8446;50.998;6.250;2023-04-24T08:41:42;7.20;99.90
16666;DHT22;8446;50.998;6.250;2023-04-24T08:44:11;7.20;99.90
16666;DHT22;8446;50.998;6.250;2023-04-24T08:46:38;7.30;99.90
16666;DHT22;8446;50.998;6.250;2023-04-24T08:49:07;7.30;99.90
16666;DHT22;8446;50.998;6.250;2023-04-24T08:51:34;7.30;99.90
16666;DHT22;8446;50.998;6.250;2023-04-24T08:54:03;7.40;99.90
16666;DHT22;8446;50.998;6.250;2023-04-24T08:56:33;7.30;99.90
16666;DHT22;8446;50.998;6.250;2023-04-24T08:59:04;7.40;99.90
16666;DHT22;8446;50.998;6.250;2023-04-24T09:01:32;7.40;99.90
16666;DHT22;8446;50.998;6.250;2023-04-24T09:04:03;7.50;99.90
16666;DHT22;8446;50.998;6.250;2023-04-24T09:06:31;7.50;99.90
16666;DHT22;8446;50.998;6.250;2023-04-24T09:09:00;7.60;99.90
16666;DHT22;8446;50.998;6.250;2023-04-24T09:11:27;7.60;99.90
16666;DHT22;8446;50.998;6.250;2023-04-24T09:13:54;7.60;99.90
16666;DHT22;8446;50.998;6.250;2023-04-24T09:16:21;7.60;99.90
16666;DHT22;8446;50.998;6.250;2023-04-24T09:18:49;7.80;99.90
16666;DHT22;8446;50.998;6.250;2023-04-24T09:21:16;7.90;99.90
16666;DHT22;8446;50.998;6.250;2023-04-24T09:23:44;8.00;99.90
16666;DHT22;8446;50.998;6.250;2023-04-24T09:26:11;8.10;99.90
16666;DHT22;8446;50.998;6.250;2023-04-24T09:28:40;8.20;99.90
16666;DHT22;8446;50.998;6.250;2023-04-24T09:31:09;8.40;99.90
16666;DHT22;8446;50.998;6.250;2023-04-24T09:33:36;8.50;99.90
16666;DHT22;8446;50.998;6.250;2023-04-24T09:36:04;8.60;99.90
16666;DHT22;8446;50.998;6.250;2023-04-24T09:38:33;8.70;99.90
16666;DHT22;8446;50.998;6.250;2023-04-24T09:41:02;8.60;99.90
16666;DHT22;8446;50.998;6.250;2023-04-24T09:43:29;8.70;99.90
16666;DHT22;8446;50.998;6.250;2023-04-24T09:45:57;8.70;99.90
16666;DHT22;8446;50.998;6.250;2023-04-24T09:48:32;8.70;99.90
16666;DHT22;8446;50.998;6.250;2023-04-24T09:50:59;8.60;99.90
16666;DHT22;8446;50.998;6.250;2023-04-24T09:53:27;8.70;99.90
16666;DHT22;8446;50.998;6.250;2023-04-24T09:55:54;8.70;99.90
16666;DHT22;8446;50.998;6.250;2023-04-24T09:58:26;8.70;99.90
16666;DHT22;8446;50.998;6.250;2023-04-24T10:00:53;8.70;99.90
16666;DHT22;8446;50.998;6.250;2023-04-24T10:03:21;8.70;99.90
16666;DHT22;8446;50.998;6.250;2023-04-24T10:05:47;8.70;99.90
16666;DHT22;8446;50.998;6.250;2023-04-24T10:08:14;8.80;99.90
16666;DHT22;8446;50.998;6.250;2023-04-24T10:10:43;8.90;99.90
16666;DHT22;8446;50.998;6.250;2023-04-24T10:13:10;9.10;99.90
16666;DHT22;8446;50.998;6.250;2023-04-24T10:15:40;8.90;99.90
16666;DHT22;8446;50.998;6.250;2023-04-24T10:18:08;9.00;99.90
16666;DHT22;8446;50.998;6.250;2023-04-24T10:20:37;9.00;99.90
16666;DHT22;8446;50.998;6.250;2023-04-24T10:23:04;9.10;99.90
16666;DHT22;8446;50.998;6.250;2023-04-24T10:25:32;9.00;99.90
16666;DHT22;8446;50.998;6.250;2023-04-24T10:28:01;9.00;99.90
16666;DHT22;8446;50.998;6.250;2023-04-24T10:30:29;9.20;99.90
16666;DHT22;8446;50.998;6.250;2023-04-24T10:32:59;9.20;99.90
16666;DHT22;8446;50.998;6.250;2023-04-24T10:35:30;9.30;99.90
16666;DHT22;8446;50.998;6.250;2023-04-24T10:38:00;9.50;99.90
16666;DHT22;8446;50.998;6.250;2023-04-24T10:40:31;9.60;99.90
16666;DHT22;8446;50.998;6.250;2023-04-24T10:42:58;9.40;99.90
16666;DHT22;8446;50.998;6.250;2023-04-24T10:45:25;9.30;99.90
16666;DHT22;8446;50.998;6.250;2023-04-24T10:47:53;9.30;99.90
16666;DHT22;8446;50.998;6.250;2023-04-24T10:50:25;9.50;99.90
16666;DHT22;8446;50.998;6.250;2023-04-24T10:52:52;9.70;99.90
16666;DHT22;8446;50.998;6.250;2023-04-24T10:55:41;9.60;99.90
16666;DHT22;8446;50.998;6.250;2023-04-24T10:58:08;9.50;99.90
16666;DHT22;8446;50.998;6.250;2023-04-24T11:00:37;9.50;99.90
16666;DHT22;8446;50.998;6.250;2023-04-24T11:03:04;9.50;99.90
16666;DHT22;8446;50.998;6.250;2023-04-24T11:05:52;10.00;99.90
16666;DHT22;8446;50.998;6.250;2023-04-24T11:08:24;10.10;99.90
16666;DHT22;8446;50.998;6.250;2023-04-24T11:10:56;10.10;99.90
16666;DHT22;8446;50.998;6.250;2023-04-24T11:13:25;10.00;99.90
16666;DHT22;8446;50.998;6.250;2023-04-24T11:16:14;10.10;99.90
16666;DHT22;8446;50.998;6.250;2023-04-24T11:18:42;10.30;99.90
16666;DHT22;8446;50.998;6.250;2023-04-24T11:21:13;10.30;99.90
16666;DHT22;8446;50.998;6.250;2023-04-24T11:23:40;10.30;99.90
16666;DHT22;8446;50.998;6.250;2023-04-24T11:26:11;10.30;99.90
16666;DHT22;8446;50.998;6.250;2023-04-24T11:28:44;10.30;99.90
16666;DHT22;8446;50.998;6.250;2023-04-24T11:31:39;10.30;99.90
16666;DHT22;8446;50.998;6.250;2023-04-24T11:34:11;10.00;99.90
16666;DHT22;8446;50.998;6.250;2023-04-24T11:36:42;9.80;99.90
16666;DHT22;8446;50.998;6.250;2023-04-24T11:39:09;9.80;99.90
16666;DHT22;8446;50.998;6.250;2023-04-24T11:41:37;10.00;99.90
16666;DHT22;8446;50.998;6.250;2023-04-24T11:44:06;10.00;99.90
16666;DHT22;8446;50.998;6.250;2023-04-24T11:46:33;10.10;99.90
16666;DHT22;8446;50.998;6.250;2023-04-24T11:49:00;10.30;99.90
16666;DHT22;8446;50.998;6.250;2023-04-24T11:51:27;10.40;99.90
16666;DHT22;8446;50.998;6.250;2023-04-24T11:53:56;10.70;99.90
16666;DHT22;8446;50.998;6.250;2023-04-24T11:56:23;10.50;99.90
16666;DHT22;8446;50.998;6.250;2023-04-24T11:58:52;10.20;99.90
16666;DHT22;8446;50.998;6.250;2023-04-24T12:01:20;10.20;99.90
16666;DHT22;8446;50.998;6.250;2023-04-24T12:03:48;10.20;99.90
16666;DHT22;8446;50.998;6.250;2023-04-24T12:06:16;10.30;99.90
16666;DHT22;8446;50.998;6.250;2023-04-24T12:08:46;10.20;99.90
16666;DHT22;8446;50.998;6.250;2023-04-24T12:11:16;10.20;99.90
16666;DHT22;8446;50.998;6.250;2023-04-24T12:13:44;10.10;99.90
16666;DHT22;8446;50.998;6.250;2023-04-24T12:16:11;10.10;99.90
16666;DHT22;8446;50.998;6.250;2023-04-24T12:18:43;10.20;99.90
16666;DHT22;8446;50.998;6.250;2023-04-24T12:21:18;10.10;99.90
16666;DHT22;8446;50.998;6.250;2023-04-24T12:23:45;10.00;99.90
16666;DHT22;8446;50.998;6.250;2023-04-24T12:26:14;10.00;99.90
16666;DHT22;8446;50.998;6.250;2023-04-24T12:28:42;9.90;99.90
16666;DHT22;8446;50.998;6.250;2023-04-24T12:31:09;10.00;99.90
16666;DHT22;8446;50.998;6.250;2023-04-24T12:33:36;10.20;99.90
16666;DHT22;8446;50.998;6.250;2023-04-24T12:36:04;10.30;99.90
16666;DHT22;8446;50.998;6.250;2023-04-24T12:38:32;10.20;99.90
16666;DHT22;8446;50.998;6.250;2023-04-24T12:41:07;10.10;99.90
16666;DHT22;8446;50.998;6.250;2023-04-24T12:43:35;10.30;99.90
16666;DHT22;8446;50.998;6.250;2023-04-24T12:46:02;10.50;99.90
16666;DHT22;8446;50.998;6.250;2023-04-24T12:48:30;10.50;99.90
16666;DHT22;8446;50.998;6.250;2023-04-24T12:50:58;10.10;99.90
16666;DHT22;8446;50.998;6.250;2023-04-24T12:53:27;10.30;99.90
16666;DHT22;8446;50.998;6.250;2023-04-24T12:55:55;10.30;99.90
16666;DHT22;8446;50.998;6.250;2023-04-24T12:58:22;10.10;99.90
16666;DHT22;8446;50.998;6.250;2023-04-24T13:00:50;10.00;99.90
16666;DHT22;8446;50.998;6.250;2023-04-24T13:03:18;9.80;99.90
16666;DHT22;8446;50.998;6.250;2023-04-24T13:05:45;9.70;99.90
16666;DHT22;8446;50.998;6.250;2023-04-24T13:08:12;9.70;99.90
16666;DHT22;8446;50.998;6.250;2023-04-24T13:10:39;9.60;99.90
16666;DHT22;8446;50.998;6.250;2023-04-24T13:13:06;9.70;99.90
16666;DHT22;8446;50.998;6.250;2023-04-24T13:15:33;9.90;99.90
16666;DHT22;8446;50.998;6.250;2023-04-24T13:18:02;10.20;99.90
16666;DHT22;8446;50.998;6.250;2023-04-24T13:20:29;10.40;99.90
16666;DHT22;8446;50.998;6.250;2023-04-24T13:22:55;10.90;99.90
16666;DHT22;8446;50.998;6.250;2023-04-24T13:25:22;11.20;99.90
16666;DHT22;8446;50.998;6.250;2023-04-24T13:27:50;11.30;99.90
16666;DHT22;8446;50.998;6.250;2023-04-24T13:30:17;11.10;99.90
16666;DHT22;8446;50.998;6.250;2023-04-24T13:32:44;11.20;99.90
16666;DHT22;8446;50.998;6.250;2023-04-24T13:35:12;10.90;99.90
16666;DHT22;8446;50.998;6.250;2023-04-24T13:37:39;10.60;99.90
16666;DHT22;8446;50.998;6.250;2023-04-24T13:40:06;10.60;99.90
16666;DHT22;8446;50.998;6.250;2023-04-24T13:42:33;10.70;99.90
16666;DHT22;8446;50.998;6.250;2023-04-24T13:45:00;10.70;99.90
16666;DHT22;8446;50.998;6.250;2023-04-24T13:47:27;10.70;99.90
16666;DHT22;8446;50.998;6.250;2023-04-24T13:49:54;10.90;99.90
16666;DHT22;8446;50.998;6.250;2023-04-24T13:52:22;11.10;99.90
16666;DHT22;8446;50.998;6.250;2023-04-24T13:54:49;11.20;99.90
16666;DHT22;8446;50.998;6.250;2023-04-24T13:57:15;11.00;99.90
16666;DHT22;8446;50.998;6.250;2023-04-24T13:59:43;11.30;99.90
16666;DHT22;8446;50.998;6.250;2023-04-24T14:02:10;11.70;99.90
16666;DHT22;8446;50.998;6.250;2023-04-24T14:04:37;12.00;99.90
16666;DHT22;8446;50.998;6.250;2023-04-24T14:07:04;12.00;99.90
16666;DHT22;8446;50.998;6.250;2023-04-24T14:09:32;11.90;99.90
16666;DHT22;8446;50.998;6.250;2023-04-24T14:11:59;11.80;99.90
16666;DHT22;8446;50.998;6.250;2023-04-24T14:14:27;11.80;99.90
16666;DHT22;8446;50.998;6.250;2023-04-24T14:16:55;11.80;99.90
16666;DHT22;8446;50.998;6.250;2023-04-24T14:19:22;12.10;99.90
16666;DHT22;8446;50.998;6.250;2023-04-24T14:21:49;12.10;99.90
16666;DHT22;8446;50.998;6.250;2023-04-24T14:24:16;12.50;99.90
16666;DHT22;8446;50.998;6.250;2023-04-24T14:26:44;13.10;99.90
16666;DHT22;8446;50.998;6.250;2023-04-24T14:29:11;13.90;99.90
16666;DHT22;8446;50.998;6.250;2023-04-24T14:31:37;14.60;99.90
16666;DHT22;8446;50.998;6.250;2023-04-24T14:34:04;14.30;99.90
16666;DHT22;8446;50.998;6.250;2023-04-24T14:36:31;14.10;99.90
16666;DHT22;8446;50.998;6.250;2023-04-24T14:38:58;14.40;99.90
16666;DHT22;8446;50.998;6.250;2023-04-24T14:41:25;14.50;99.90
16666;DHT22;8446;50.998;6.250;2023-04-24T14:43:53;14.50;99.90
16666;DHT22;8446;50.998;6.250;2023-04-24T14:46:20;14.70;99.90
16666;DHT22;8446;50.998;6.250;2023-04-24T14:48:47;14.70;99.90
16666;DHT22;8446;50.998;6.250;2023-04-24T14:51:13;14.10;99.90
16666;DHT22;8446;50.998;6.250;2023-04-24T14:53:40;13.80;99.90
16666;DHT22;8446;50.998;6.250;2023-04-24T14:56:07;13.90;99.90
16666;DHT22;8446;50.998;6.250;2023-04-24T14:58:34;13.60;99.90
16666;DHT22;8446;50.998;6.250;2023-04-24T15:01:02;13.70;99.90
16666;DHT22;8446;50.998;6.250;2023-04-24T15:03:29;14.10;99.90
16666;DHT22;8446;50.998;6.250;2023-04-24T15:05:57;14.40;99.90
16666;DHT22;8446;50.998;6.250;2023-04-24T15:08:24;14.60;99.90
16666;DHT22;8446;50.998;6.250;2023-04-24T15:10:51;14.90;99.90
16666;DHT22;8446;50.998;6.250;2023-04-24T15:13:18;15.20;99.90
16666;DHT22;8446;50.998;6.250;2023-04-24T15:15:46;15.60;99.90
16666;DHT22;8446;50.998;6.250;2023-04-24T15:18:14;15.20;99.90
16666;DHT22;8446;50.998;6.250;2023-04-24T15:20:41;15.60;99.90
16666;DHT22;8446;50.998;6.250;2023-04-24T15:23:08;15.70;99.90
16666;DHT22;8446;50.998;6.250;2023-04-24T15:25:36;15.90;99.90
16666;DHT22;8446;50.998;6.250;2023-04-24T15:28:03;15.50;99.90
16666;DHT22;8446;50.998;6.250;2023-04-24T15:30:30;15.20;99.90
16666;DHT22;8446;50.998;6.250;2023-04-24T15:32:57;14.70;99.90
16666;DHT22;8446;50.998;6.250;2023-04-24T15:35:25;14.60;99.90
16666;DHT22;8446;50.998;6.250;2023-04-24T15:37:52;14.40;99.90
16666;DHT22;8446;50.998;6.250;2023-04-24T15:40:19;14.40;99.90
16666;DHT22;8446;50.998;6.250;2023-04-24T15:42:45;14.40;99.90
16666;DHT22;8446;50.998;6.250;2023-04-24T15:45:12;14.70;99.90
16666;DHT22;8446;50.998;6.250;2023-04-24T15:47:39;14.80;99.90
16666;DHT22;8446;50.998;6.250;2023-04-24T15:50:07;14.90;99.90
16666;DHT22;8446;50.998;6.250;2023-04-24T15:52:36;15.80;99.90
16666;DHT22;8446;50.998;6.250;2023-04-24T15:55:03;16.80;99.90
16666;DHT22;8446;50.998;6.250;2023-04-24T15:57:30;17.20;99.90
16666;DHT22;8446;50.998;6.250;2023-04-24T15:59:57;17.20;99.90